sensor_id;sensor_type;location;lat;lon;timestamp;pressure;altitude;pressure_sealevel;temperature
23992;BMP280;12205;50.600;4.608;2023-03-23T00:01:48;98819.00;;;12.94
23992;BMP280;12205;50.600;4.608;2023-03-23T00:04:18;98818.69;;;12.92
23992;BMP280;12205;50.600;4.608;2023-03-23T00:06:45;98812.44;;;12.99
23992;BMP280;12205;50.600;4.608;2023-03-23T00:09:13;98820.44;;;13.02
23992;BMP280;12205;50.600;4.608;2023-03-23T00:11:42;98803.31;;;12.96
23992;BMP280;12205;50.600;4.608;2023-03-23T00:14:10;98814.03;;;12.96
23992;BMP280;12205;50.600;4.608;2023-03-23T00:16:40;98810.97;;;12.94
23992;BMP280;12205;50.600;4.608;2023-03-23T00:19:11;98801.00;;;12.95
23992;BMP280;12205;50.600;4.608;2023-03-23T00:21:42;98801.09;;;12.87
23992;BMP280;12205;50.600;4.608;2023-03-23T00:24:11;98786.59;;;12.85
23992;BMP280;12205;50.600;4.608;2023-03-23T00:26:40;98775.06;;;12.88
23992;BMP280;12205;50.600;4.608;2023-03-23T00:29:12;98784.38;;;12.80
23992;BMP280;12205;50.600;4.608;2023-03-23T00:31:41;98795.72;;;12.91
23992;BMP280;12205;50.600;4.608;2023-03-23T00:34:13;98791.72;;;12.99
23992;BMP280;12205;50.600;4.608;2023-03-23T00:36:45;98792.19;;;12.94
23992;BMP280;12205;50.600;4.608;2023-03-23T00:39:13;98797.25;;;12.92
23992;BMP280;12205;50.600;4.608;2023-03-23T00:41:42;98791.88;;;12.92
23992;BMP280;12205;50.600;4.608;2023-03-23T00:44:10;98794.94;;;12.91
23992;BMP280;12205;50.600;4.608;2023-03-23T00:46:42;98775.88;;;12.85
23992;BMP280;12205;50.600;4.608;2023-03-23T00:49:12;98789.63;;;12.87
23992;BMP280;12205;50.600;4.608;2023-03-23T00:51:41;98792.19;;;12.94
23992;BMP280;12205;50.600;4.608;2023-03-23T00:54:11;98761.28;;;12.86
23992;BMP280;12205;50.600;4.608;2023-03-23T00:56:38;98748.31;;;12.84
23992;BMP280;12205;50.600;4.608;2023-03-23T00:59:06;98763.66;;;12.84
23992;BMP280;12205;50.600;4.608;2023-03-23T01:01:33;98749.06;;;12.85
23992;BMP280;12205;50.600;4.608;2023-03-23T01:04:03;98741.00;;;12.85
23992;BMP280;12205;50.600;4.608;2023-03-23T01:06:32;98746.84;;;12.80
23992;BMP280;12205;50.600;4.608;2023-03-23T01:09:02;98742.19;;;12.84
23992;BMP280;12205;50.600;4.608;2023-03-23T01:11:31;98753.34;;;12.79
23992;BMP280;12205;50.600;4.608;2023-03-23T01:13:59;98746.22;;;12.68
23992;BMP280;12205;50.600;4.608;2023-03-23T01:16:27;98753.13;;;12.69
23992;BMP280;12205;50.600;4.608;2023-03-23T01:18:54;98747.00;;;12.69
23992;BMP280;12205;50.600;4.608;2023-03-23T01:21:22;98743.09;;;12.74
23992;BMP280;12205;50.600;4.608;2023-03-23T01:23:51;98733.91;;;12.75
23992;BMP280;12205;50.600;4.608;2023-03-23T01:26:21;98741.13;;;12.78
23992;BMP280;12205;50.600;4.608;2023-03-23T01:28:50;98722.34;;;12.78
23992;BMP280;12205;50.600;4.608;2023-03-23T01:31:20;98714.72;;;12.76
23992;BMP280;12205;50.600;4.608;2023-03-23T01:33:48;98741.47;;;12.80
23992;BMP280;12205;50.600;4.608;2023-03-23T01:36:19;98730.34;;;12.81
23992;BMP280;12205;50.600;4.608;2023-03-23T01:38:49;98727.59;;;12.85
23992;BMP280;12205;50.600;4.608;2023-03-23T01:41:18;98740.56;;;12.90
23992;BMP280;12205;50.600;4.608;2023-03-23T01:44:01;98727.56;;;12.88
23992;BMP280;12205;50.600;4.608;2023-03-23T01:46:35;98729.75;;;12.94
23992;BMP280;12205;50.600;4.608;2023-03-23T01:49:09;98731.34;;;12.91
23992;BMP280;12205;50.600;4.608;2023-03-23T01:51:43;98733.56;;;12.96
23992;BMP280;12205;50.600;4.608;2023-03-23T01:54:15;98732.38;;;12.97
23992;BMP280;12205;50.600;4.608;2023-03-23T01:56:50;98749.66;;;12.96
23992;BMP280;12205;50.600;4.608;2023-03-23T01:59:21;98767.25;;;12.97
23992;BMP280;12205;50.600;4.608;2023-03-23T02:02:04;98767.59;;;12.99
23992;BMP280;12205;50.600;4.608;2023-03-23T02:04:33;98795.16;;;13.00
23992;BMP280;12205;50.600;4.608;2023-03-23T02:07:01;98779.50;;;12.98
23992;BMP280;12205;50.600;4.608;2023-03-23T02:09:29;98788.72;;;12.97
23992;BMP280;12205;50.600;4.608;2023-03-23T02:11:57;98788.72;;;12.97
23992;BMP280;12205;50.600;4.608;2023-03-23T02:14:28;98797.16;;;12.96
23992;BMP280;12205;50.600;4.608;2023-03-23T02:17:05;98799.78;;;12.99
23992;BMP280;12205;50.600;4.608;2023-03-23T02:20:13;98804.84;;;12.94
23992;BMP280;12205;50.600;4.608;2023-03-23T02:23:27;98806.44;;;12.91
23992;BMP280;12205;50.600;4.608;2023-03-23T02:26:19;98804.81;;;12.97
23992;BMP280;12205;50.600;4.608;2023-03-23T02:32:18;98783.41;;;12.94
23992;BMP280;12205;50.600;4.608;2023-03-23T02:34:52;98781.06;;;12.96
23992;BMP280;12205;50.600;4.608;2023-03-23T02:37:27;98787.59;;;12.95
23992;BMP280;12205;50.600;4.608;2023-03-23T02:40:02;98803.75;;;12.91
23992;BMP280;12205;50.600;4.608;2023-03-23T02:42:38;98796.13;;;12.90
23992;BMP280;12205;50.600;4.608;2023-03-23T02:45:10;98792.19;;;12.94
23992;BMP280;12205;50.600;4.608;2023-03-23T02:47:39;98777.25;;;12.93
23992;BMP280;12205;50.600;4.608;2023-03-23T02:50:13;98781.16;;;12.92
23992;BMP280;12205;50.600;4.608;2023-03-23T02:52:45;98787.28;;;12.89
23992;BMP280;12205;50.600;4.608;2023-03-23T02:55:14;98775.81;;;12.88
23992;BMP280;12205;50.600;4.608;2023-03-23T02:57:42;98778.84;;;12.91
23992;BMP280;12205;50.600;4.608;2023-03-23T03:00:15;98792.59;;;12.93
23992;BMP280;12205;50.600;4.608;2023-03-23T03:02:46;98813.66;;;12.94
23992;BMP280;12205;50.600;4.608;2023-03-23T03:05:30;98800.00;;;12.85
23992;BMP280;12205;50.600;4.608;2023-03-23T03:08:12;98806.53;;;12.84
23992;BMP280;12205;50.600;4.608;2023-03-23T03:10:50;98820.38;;;12.79
23992;BMP280;12205;50.600;4.608;2023-03-23T03:13:32;98827.16;;;12.87
23992;BMP280;12205;50.600;4.608;2023-03-23T03:16:14;98798.13;;;12.82
23992;BMP280;12205;50.600;4.608;2023-03-23T03:18:48;98801.88;;;12.88
23992;BMP280;12205;50.600;4.608;2023-03-23T03:21:27;98808.75;;;12.89
23992;BMP280;12205;50.600;4.608;2023-03-23T03:24:01;98799.75;;;12.76
23992;BMP280;12205;50.600;4.608;2023-03-23T03:26:32;98789.06;;;12.72
23992;BMP280;12205;50.600;4.608;2023-03-23T03:29:21;98789.91;;;12.65
23992;BMP280;12205;50.600;4.608;2023-03-23T03:31:55;98789.13;;;12.68
23992;BMP280;12205;50.600;4.608;2023-03-23T03:34:26;98782.25;;;12.67
23992;BMP280;12205;50.600;4.608;2023-03-23T03:36:57;98793.31;;;12.69
23992;BMP280;12205;50.600;4.608;2023-03-23T03:39:27;98798.28;;;12.71
23992;BMP280;12205;50.600;4.608;2023-03-23T03:41:55;98802.53;;;12.68
23992;BMP280;12205;50.600;4.608;2023-03-23T03:44:22;98806.72;;;12.69
23992;BMP280;12205;50.600;4.608;2023-03-23T03:46:49;98820.91;;;12.70
23992;BMP280;12205;50.600;4.608;2023-03-23T03:49:16;98818.25;;;12.66
23992;BMP280;12205;50.600;4.608;2023-03-23T03:51:44;98805.19;;;12.68
23992;BMP280;12205;50.600;4.608;2023-03-23T03:54:20;98826.41;;;12.59
23992;BMP280;12205;50.600;4.608;2023-03-23T03:56:47;98826.41;;;12.59
23992;BMP280;12205;50.600;4.608;2023-03-23T03:59:44;98843.22;;;12.60
23992;BMP280;12205;50.600;4.608;2023-03-23T04:02:14;98841.28;;;12.64
23992;BMP280;12205;50.600;4.608;2023-03-23T04:04:46;98849.72;;;12.62
23992;BMP280;12205;50.600;4.608;2023-03-23T04:07:13;98849.41;;;12.57
23992;BMP280;12205;50.600;4.608;2023-03-23T04:09:43;98848.25;;;12.58
23992;BMP280;12205;50.600;4.608;2023-03-23T04:12:13;98843.66;;;12.55
23992;BMP280;12205;50.600;4.608;2023-03-23T04:14:56;98857.38;;;12.60
23992;BMP280;12205;50.600;4.608;2023-03-23T04:17:28;98837.91;;;12.56
23992;BMP280;12205;50.600;4.608;2023-03-23T04:19:57;98847.53;;;12.54
23992;BMP280;12205;50.600;4.608;2023-03-23T04:22:27;98847.50;;;12.57
23992;BMP280;12205;50.600;4.608;2023-03-23T04:25:01;98845.16;;;12.59
23992;BMP280;12205;50.600;4.608;2023-03-23T04:27:33;98844.47;;;12.55
23992;BMP280;12205;50.600;4.608;2023-03-23T04:30:04;98849.03;;;12.55
23992;BMP280;12205;50.600;4.608;2023-03-23T04:32:41;98844.56;;;12.44
23992;BMP280;12205;50.600;4.608;2023-03-23T04:35:13;98862.22;;;12.42
23992;BMP280;12205;50.600;4.608;2023-03-23T04:37:46;98840.06;;;12.38
23992;BMP280;12205;50.600;4.608;2023-03-23T04:40:18;98857.75;;;12.31
23992;BMP280;12205;50.600;4.608;2023-03-23T04:42:56;98833.25;;;12.33
23992;BMP280;12205;50.600;4.608;2023-03-23T04:45:53;98832.94;;;12.27
23992;BMP280;12205;50.600;4.608;2023-03-23T04:48:22;98843.19;;;12.32
23992;BMP280;12205;50.600;4.608;2023-03-23T04:51:01;98838.59;;;12.29
23992;BMP280;12205;50.600;4.608;2023-03-23T04:53:30;98835.06;;;12.40
23992;BMP280;12205;50.600;4.608;2023-03-23T04:56:00;98836.22;;;12.39
23992;BMP280;12205;50.600;4.608;2023-03-23T04:58:33;98836.28;;;12.35
23992;BMP280;12205;50.600;4.608;2023-03-23T05:01:10;98833.25;;;12.29
23992;BMP280;12205;50.600;4.608;2023-03-23T05:03:45;98834.38;;;12.32
23992;BMP280;12205;50.600;4.608;2023-03-23T05:06:13;98833.16;;;12.37
23992;BMP280;12205;50.600;4.608;2023-03-23T05:08:41;98834.00;;;12.34
23992;BMP280;12205;50.600;4.608;2023-03-23T05:11:10;98840.53;;;12.29
23992;BMP280;12205;50.600;4.608;2023-03-23T05:13:41;98842.50;;;12.25
23992;BMP280;12205;50.600;4.608;2023-03-23T05:16:10;98842.56;;;12.21
23992;BMP280;12205;50.600;4.608;2023-03-23T05:18:40;98831.00;;;12.24
23992;BMP280;12205;50.600;4.608;2023-03-23T05:21:10;98836.69;;;12.30
23992;BMP280;12205;50.600;4.608;2023-03-23T05:23:41;98833.25;;;12.29
23992;BMP280;12205;50.600;4.608;2023-03-23T05:26:19;98832.09;;;12.30
23992;BMP280;12205;50.600;4.608;2023-03-23T05:28:48;98836.34;;;12.28
23992;BMP280;12205;50.600;4.608;2023-03-23T05:31:22;98846.31;;;12.27
23992;BMP280;12205;50.600;4.608;2023-03-23T05:33:50;98842.50;;;12.25
23992;BMP280;12205;50.600;4.608;2023-03-23T05:36:26;98831.09;;;12.21
23992;BMP280;12205;50.600;4.608;2023-03-23T05:39:14;98838.38;;;12.17
23992;BMP280;12205;50.600;4.608;2023-03-23T05:41:59;98841.03;;;12.20
23992;BMP280;12205;50.600;4.608;2023-03-23T05:44:37;98834.94;;;12.16
23992;BMP280;12205;50.600;4.608;2023-03-23T05:47:04;98847.94;;;12.18
23992;BMP280;12205;50.600;4.608;2023-03-23T05:49:33;98842.59;;;12.18
23992;BMP280;12205;50.600;4.608;2023-03-23T05:52:04;98849.50;;;12.15
23992;BMP280;12205;50.600;4.608;2023-03-23T05:54:32;98847.56;;;12.19
23992;BMP280;12205;50.600;4.608;2023-03-23T05:57:02;98851.41;;;12.14
23992;BMP280;12205;50.600;4.608;2023-03-23T05:59:41;98860.22;;;12.15
23992;BMP280;12205;50.600;4.608;2023-03-23T06:02:14;98857.13;;;12.17
23992;BMP280;12205;50.600;4.608;2023-03-23T06:04:42;98864.03;;;12.18
23992;BMP280;12205;50.600;4.608;2023-03-23T06:07:22;98864.78;;;12.18
23992;BMP280;12205;50.600;4.608;2023-03-23T06:09:57;98869.75;;;12.16
23992;BMP280;12205;50.600;4.608;2023-03-23T06:12:26;98880.06;;;12.21
23992;BMP280;12205;50.600;4.608;2023-03-23T06:15:13;98883.81;;;12.27
23992;BMP280;12205;50.600;4.608;2023-03-23T06:18:01;98897.97;;;12.24
23992;BMP280;12205;50.600;4.608;2023-03-23T06:20:37;98881.56;;;12.22
23992;BMP280;12205;50.600;4.608;2023-03-23T06:23:19;98908.25;;;12.29
23992;BMP280;12205;50.600;4.608;2023-03-23T06:25:48;98902.59;;;12.27
23992;BMP280;12205;50.600;4.608;2023-03-23T06:28:16;98898.28;;;12.34
23992;BMP280;12205;50.600;4.608;2023-03-23T06:30:47;98911.31;;;12.31
23992;BMP280;12205;50.600;4.608;2023-03-23T06:33:14;98909.00;;;12.30
23992;BMP280;12205;50.600;4.608;2023-03-23T06:36:00;98914.31;;;12.37
23992;BMP280;12205;50.600;4.608;2023-03-23T06:38:47;98917.03;;;12.34
23992;BMP280;12205;50.600;4.608;2023-03-23T06:41:18;98919.63;;;12.41
23992;BMP280;12205;50.600;4.608;2023-03-23T06:43:47;98913.84;;;12.46
23992;BMP280;12205;50.600;4.608;2023-03-23T06:46:19;98901.97;;;12.47
23992;BMP280;12205;50.600;4.608;2023-03-23T06:48:53;98927.63;;;12.44
23992;BMP280;12205;50.600;4.608;2023-03-23T06:51:28;98931.06;;;12.45
23992;BMP280;12205;50.600;4.608;2023-03-23T06:53:55;98921.88;;;12.46
23992;BMP280;12205;50.600;4.608;2023-03-23T06:56:26;98929.56;;;12.44
23992;BMP280;12205;50.600;4.608;2023-03-23T06:58:54;98930.66;;;12.50
23992;BMP280;12205;50.600;4.608;2023-03-23T07:01:24;98932.16;;;12.51
23992;BMP280;12205;50.600;4.608;2023-03-23T07:03:57;98928.69;;;12.50
23992;BMP280;12205;50.600;4.608;2023-03-23T07:06:47;98932.50;;;12.53
23992;BMP280;12205;50.600;4.608;2023-03-23T07:09:14;98917.19;;;12.57
23992;BMP280;12205;50.600;4.608;2023-03-23T07:11:41;98925.56;;;12.59
23992;BMP280;12205;50.600;4.608;2023-03-23T07:14:20;98936.28;;;12.59
23992;BMP280;12205;50.600;4.608;2023-03-23T07:16:49;98934.66;;;12.65
23992;BMP280;12205;50.600;4.608;2023-03-23T07:19:17;98933.13;;;12.64
23992;BMP280;12205;50.600;4.608;2023-03-23T07:21:44;98931.66;;;12.63
23992;BMP280;12205;50.600;4.608;2023-03-23T07:24:13;98910.22;;;12.60
23992;BMP280;12205;50.600;4.608;2023-03-23T07:27:04;98924.38;;;12.60
23992;BMP280;12205;50.600;4.608;2023-03-23T07:29:33;98907.88;;;12.65
23992;BMP280;12205;50.600;4.608;2023-03-23T10:32:45;98139.63;;;10.62
23992;BMP280;12205;50.600;4.608;2023-03-23T10:35:21;98110.75;;;10.77
23992;BMP280;12205;50.600;4.608;2023-03-23T10:37:59;98084.56;;;10.92
23992;BMP280;12205;50.600;4.608;2023-03-23T10:40:30;98046.41;;;11.11
23992;BMP280;12205;50.600;4.608;2023-03-23T10:42:58;98025.06;;;11.28
23992;BMP280;12205;50.600;4.608;2023-03-23T10:45:28;98001.72;;;11.48
23992;BMP280;12205;50.600;4.608;2023-03-23T10:48:09;97990.63;;;11.66
23992;BMP280;12205;50.600;4.608;2023-03-23T10:50:39;97989.13;;;11.82
23992;BMP280;12205;50.600;4.608;2023-03-23T10:53:15;97997.66;;;11.93
23992;BMP280;12205;50.600;4.608;2023-03-23T10:55:43;98019.84;;;12.10
23992;BMP280;12205;50.600;4.608;2023-03-23T10:58:23;98073.88;;;12.21
23992;BMP280;12205;50.600;4.608;2023-03-23T11:00:51;98157.16;;;12.27
23992;BMP280;12205;50.600;4.608;2023-03-23T11:03:34;98354.06;;;12.35
23992;BMP280;12205;50.600;4.608;2023-03-23T11:06:06;98433.31;;;12.53
23992;BMP280;12205;50.600;4.608;2023-03-23T11:08:38;98563.25;;;12.64
23992;BMP280;12205;50.600;4.608;2023-03-23T11:11:17;98622.44;;;12.74
23992;BMP280;12205;50.600;4.608;2023-03-23T11:13:47;98656.41;;;12.84
23992;BMP280;12205;50.600;4.608;2023-03-23T11:16:25;98649.59;;;12.99
23992;BMP280;12205;50.600;4.608;2023-03-23T11:18:55;98672.91;;;13.02
23992;BMP280;12205;50.600;4.608;2023-03-23T11:21:23;98707.19;;;13.15
23992;BMP280;12205;50.600;4.608;2023-03-23T11:23:55;98740.09;;;13.19
23992;BMP280;12205;50.600;4.608;2023-03-23T11:26:27;98785.50;;;13.30
23992;BMP280;12205;50.600;4.608;2023-03-23T11:29:03;98793.03;;;13.38
23992;BMP280;12205;50.600;4.608;2023-03-23T11:31:34;98830.81;;;13.48
23992;BMP280;12205;50.600;4.608;2023-03-23T11:34:04;98847.94;;;13.57
23992;BMP280;12205;50.600;4.608;2023-03-23T11:36:40;98859.75;;;13.60
23992;BMP280;12205;50.600;4.608;2023-03-23T11:39:23;98870.50;;;13.60
23992;BMP280;12205;50.600;4.608;2023-03-23T11:41:51;98861.38;;;13.54
23992;BMP280;12205;50.600;4.608;2023-03-23T11:44:22;98845.41;;;13.47
23992;BMP280;12205;50.600;4.608;2023-03-23T11:47:01;98869.81;;;13.32
23992;BMP280;12205;50.600;4.608;2023-03-23T11:49:44;98834.22;;;13.28
23992;BMP280;12205;50.600;4.608;2023-03-23T11:52:19;98799.41;;;13.24
23992;BMP280;12205;50.600;4.608;2023-03-23T11:54:55;98823.25;;;13.19
23992;BMP280;12205;50.600;4.608;2023-03-23T11:57:24;98810.41;;;13.30
23992;BMP280;12205;50.600;4.608;2023-03-23T11:59:51;98793.25;;;13.48
23992;BMP280;12205;50.600;4.608;2023-03-23T12:05:56;98849.94;;;13.97
23992;BMP280;12205;50.600;4.608;2023-03-23T12:08:56;98884.25;;;14.09
23992;BMP280;12205;50.600;4.608;2023-03-23T12:11:33;98896.47;;;14.30
23992;BMP280;12205;50.600;4.608;2023-03-23T12:14:16;98921.84;;;14.49
23992;BMP280;12205;50.600;4.608;2023-03-23T12:16:59;98887.00;;;14.82
23992;BMP280;12205;50.600;4.608;2023-03-23T12:19:42;98975.81;;;14.99
23992;BMP280;12205;50.600;4.608;2023-03-23T12:22:28;98983.72;;;15.06
23992;BMP280;12205;50.600;4.608;2023-03-23T12:25:13;98984.56;;;15.03
23992;BMP280;12205;50.600;4.608;2023-03-23T12:27:51;99028.50;;;14.76
23992;BMP280;12205;50.600;4.608;2023-03-23T12:30:31;98983.91;;;14.58
23992;BMP280;12205;50.600;4.608;2023-03-23T12:33:17;98986.38;;;14.49
23992;BMP280;12205;50.600;4.608;2023-03-23T12:36:03;98940.25;;;14.31
23992;BMP280;12205;50.600;4.608;2023-03-23T12:38:54;98918.44;;;14.29
23992;BMP280;12205;50.600;4.608;2023-03-23T12:41:31;98878.63;;;14.20
23992;BMP280;12205;50.600;4.608;2023-03-23T12:44:06;98843.22;;;14.05
23992;BMP280;12205;50.600;4.608;2023-03-23T12:47:01;98832.56;;;13.81
23992;BMP280;12205;50.600;4.608;2023-03-23T12:49:37;98774.28;;;13.78
23992;BMP280;12205;50.600;4.608;2023-03-23T12:52:15;98744.00;;;13.58
23992;BMP280;12205;50.600;4.608;2023-03-23T12:54:52;98738.97;;;13.60
23992;BMP280;12205;50.600;4.608;2023-03-23T12:57:27;98718.72;;;13.75
23992;BMP280;12205;50.600;4.608;2023-03-23T13:00:06;98642.06;;;14.24
23992;BMP280;12205;50.600;4.608;2023-03-23T13:02:42;98780.13;;;14.66
23992;BMP280;12205;50.600;4.608;2023-03-23T13:05:32;98814.69;;;15.17
23992;BMP280;12205;50.600;4.608;2023-03-23T13:08:05;98900.78;;;15.66
23992;BMP280;12205;50.600;4.608;2023-03-23T13:10:43;99004.59;;;16.00
23992;BMP280;12205;50.600;4.608;2023-03-23T13:13:18;99059.25;;;16.17
23992;BMP280;12205;50.600;4.608;2023-03-23T13:16:04;99072.13;;;16.42
23992;BMP280;12205;50.600;4.608;2023-03-23T13:18:44;99139.31;;;16.66
23992;BMP280;12205;50.600;4.608;2023-03-23T13:21:21;99130.16;;;16.93
23992;BMP280;12205;50.600;4.608;2023-03-23T13:23:56;99153.13;;;17.26
23992;BMP280;12205;50.600;4.608;2023-03-23T13:26:26;99145.59;;;17.47
23992;BMP280;12205;50.600;4.608;2023-03-23T13:28:58;99158.22;;;17.50
23992;BMP280;12205;50.600;4.608;2023-03-23T13:31:30;99135.53;;;17.35
23992;BMP280;12205;50.600;4.608;2023-03-23T13:34:05;99152.31;;;17.13
23992;BMP280;12205;50.600;4.608;2023-03-23T13:36:37;99120.19;;;16.89
23992;BMP280;12205;50.600;4.608;2023-03-23T13:39:17;99111.31;;;16.76
23992;BMP280;12205;50.600;4.608;2023-03-23T13:41:54;99117.63;;;16.40
23992;BMP280;12205;50.600;4.608;2023-03-23T13:44:38;99111.59;;;16.36
23992;BMP280;12205;50.600;4.608;2023-03-23T13:47:16;99114.84;;;16.27
23992;BMP280;12205;50.600;4.608;2023-03-23T13:49:54;99082.50;;;16.27
23992;BMP280;12205;50.600;4.608;2023-03-23T13:52:37;99115.47;;;16.19
23992;BMP280;12205;50.600;4.608;2023-03-23T13:55:40;99099.13;;;16.09
23992;BMP280;12205;50.600;4.608;2023-03-23T13:58:24;99090.75;;;16.66
23992;BMP280;12205;50.600;4.608;2023-03-23T14:01:14;99104.91;;;17.12
23992;BMP280;12205;50.600;4.608;2023-03-23T14:03:46;99111.28;;;17.18
23992;BMP280;12205;50.600;4.608;2023-03-23T14:06:20;99107.47;;;17.03
23992;BMP280;12205;50.600;4.608;2023-03-23T14:09:10;99101.69;;;16.75
23992;BMP280;12205;50.600;4.608;2023-03-23T14:11:54;99095.41;;;16.65
23992;BMP280;12205;50.600;4.608;2023-03-23T14:14:33;99099.94;;;16.39
23992;BMP280;12205;50.600;4.608;2023-03-23T14:17:08;99082.06;;;16.29
23992;BMP280;12205;50.600;4.608;2023-03-23T14:19:39;99082.59;;;16.24
23992;BMP280;12205;50.600;4.608;2023-03-23T14:22:19;99083.13;;;16.02
23992;BMP280;12205;50.600;4.608;2023-03-23T14:24:49;99077.72;;;16.02
23992;BMP280;12205;50.600;4.608;2023-03-23T14:27:18;99073.88;;;15.87
23992;BMP280;12205;50.600;4.608;2023-03-23T14:29:58;99061.47;;;15.73
23992;BMP280;12205;50.600;4.608;2023-03-23T14:32:29;99091.69;;;15.64
23992;BMP280;12205;50.600;4.608;2023-03-23T14:34:58;99102.25;;;15.39
23992;BMP280;12205;50.600;4.608;2023-03-23T14:37:26;99109.50;;;15.22
23992;BMP280;12205;50.600;4.608;2023-03-23T14:39:55;99094.22;;;15.15
23992;BMP280;12205;50.600;4.608;2023-03-23T14:42:28;99107.38;;;15.13
23992;BMP280;12205;50.600;4.608;2023-03-23T14:44:59;99097.22;;;15.21
23992;BMP280;12205;50.600;4.608;2023-03-23T14:47:31;99096.03;;;15.42
23992;BMP280;12205;50.600;4.608;2023-03-23T14:50:03;99078.72;;;16.08
23992;BMP280;12205;50.600;4.608;2023-03-23T14:52:34;99081.06;;;16.81
23992;BMP280;12205;50.600;4.608;2023-03-23T14:55:12;99075.84;;;17.42
23992;BMP280;12205;50.600;4.608;2023-03-23T14:57:41;99073.50;;;17.70
23992;BMP280;12205;50.600;4.608;2023-03-23T15:00:15;99072.78;;;18.04
23992;BMP280;12205;50.600;4.608;2023-03-23T15:02:48;99069.78;;;18.24
23992;BMP280;12205;50.600;4.608;2023-03-23T15:05:20;99075.56;;;18.35
23992;BMP280;12205;50.600;4.608;2023-03-23T15:07:54;99065.72;;;18.06
23992;BMP280;12205;50.600;4.608;2023-03-23T15:10:23;99081.22;;;17.93
23992;BMP280;12205;50.600;4.608;2023-03-23T15:12:52;99070.03;;;17.31
23992;BMP280;12205;50.600;4.608;2023-03-23T15:15:29;99064.72;;;17.01
23992;BMP280;12205;50.600;4.608;2023-03-23T15:17:59;99060.84;;;17.02
23992;BMP280;12205;50.600;4.608;2023-03-23T15:20:30;99056.53;;;17.05
23992;BMP280;12205;50.600;4.608;2023-03-23T15:23:06;99052.75;;;17.02
23992;BMP280;12205;50.600;4.608;2023-03-23T15:25:35;99060.63;;;16.97
23992;BMP280;12205;50.600;4.608;2023-03-23T15:28:17;99044.81;;;16.82
23992;BMP280;12205;50.600;4.608;2023-03-23T15:30:53;99047.00;;;16.87
23992;BMP280;12205;50.600;4.608;2023-03-23T15:33:22;99041.06;;;16.93
23992;BMP280;12205;50.600;4.608;2023-03-23T15:35:56;99038.53;;;16.85
23992;BMP280;12205;50.600;4.608;2023-03-23T15:38:26;99035.13;;;16.98
23992;BMP280;12205;50.600;4.608;2023-03-23T15:40:58;99044.81;;;16.82
23992;BMP280;12205;50.600;4.608;2023-03-23T15:43:30;99026.56;;;16.74
23992;BMP280;12205;50.600;4.608;2023-03-23T15:46:02;99045.31;;;16.64
23992;BMP280;12205;50.600;4.608;2023-03-23T15:48:32;99050.03;;;16.47
23992;BMP280;12205;50.600;4.608;2023-03-23T15:51:03;99036.38;;;16.38
23992;BMP280;12205;50.600;4.608;2023-03-23T15:53:34;99044.06;;;16.23
23992;BMP280;12205;50.600;4.608;2023-03-23T15:56:05;99046.94;;;15.87
23992;BMP280;12205;50.600;4.608;2023-03-23T15:58:34;99043.53;;;15.83
23992;BMP280;12205;50.600;4.608;2023-03-23T16:01:06;99048.91;;;15.66
23992;BMP280;12205;50.600;4.608;2023-03-23T16:03:39;99049.56;;;15.54
23992;BMP280;12205;50.600;4.608;2023-03-23T16:06:10;99060.16;;;15.45
23992;BMP280;12205;50.600;4.608;2023-03-23T16:08:38;99056.22;;;15.33
23992;BMP280;12205;50.600;4.608;2023-03-23T16:11:06;99041.78;;;15.23
23992;BMP280;12205;50.600;4.608;2023-03-23T16:13:33;99063.31;;;15.23
23992;BMP280;12205;50.600;4.608;2023-03-23T16:16:03;99041.78;;;15.23
23992;BMP280;12205;50.600;4.608;2023-03-23T16:18:33;99032.53;;;15.24
23992;BMP280;12205;50.600;4.608;2023-03-23T16:21:00;99037.75;;;15.31
23992;BMP280;12205;50.600;4.608;2023-03-23T16:23:28;99040.44;;;15.31
23992;BMP280;12205;50.600;4.608;2023-03-23T16:25:55;99035.41;;;15.33
23992;BMP280;12205;50.600;4.608;2023-03-23T16:28:22;99031.47;;;15.38
23992;BMP280;12205;50.600;4.608;2023-03-23T16:30:50;99036.84;;;15.38
23992;BMP280;12205;50.600;4.608;2023-03-23T16:33:18;99031.69;;;15.27
23992;BMP280;12205;50.600;4.608;2023-03-23T16:35:45;99023.81;;;15.37
23992;BMP280;12205;50.600;4.608;2023-03-23T16:38:14;99024.34;;;15.48
23992;BMP280;12205;50.600;4.608;2023-03-23T16:40:44;99020.16;;;15.47
23992;BMP280;12205;50.600;4.608;2023-03-23T16:43:11;99021.06;;;15.40
23992;BMP280;12205;50.600;4.608;2023-03-23T16:45:41;99017.56;;;15.40
23992;BMP280;12205;50.600;4.608;2023-03-23T16:48:09;99009.00;;;15.45
23992;BMP280;12205;50.600;4.608;2023-03-23T16:50:39;99003.28;;;15.43
23992;BMP280;12205;50.600;4.608;2023-03-23T16:53:08;99020.94;;;15.44
23992;BMP280;12205;50.600;4.608;2023-03-23T16:55:36;99009.34;;;15.30
23992;BMP280;12205;50.600;4.608;2023-03-23T16:58:04;99009.16;;;15.38
23992;BMP280;12205;50.600;4.608;2023-03-23T17:00:32;99015.16;;;15.45
23992;BMP280;12205;50.600;4.608;2023-03-23T17:02:59;99011.94;;;15.50
23992;BMP280;12205;50.600;4.608;2023-03-23T17:05:28;99013.41;;;15.55
23992;BMP280;12205;50.600;4.608;2023-03-23T17:07:57;99004.13;;;15.56
23992;BMP280;12205;50.600;4.608;2023-03-23T17:10:27;99012.63;;;15.54
23992;BMP280;12205;50.600;4.608;2023-03-23T17:12:54;99005.66;;;15.57
23992;BMP280;12205;50.600;4.608;2023-03-23T17:15:22;98993.63;;;15.45
23992;BMP280;12205;50.600;4.608;2023-03-23T17:17:50;99002.88;;;15.44
23992;BMP280;12205;50.600;4.608;2023-03-23T17:20:18;99008.66;;;15.26
23992;BMP280;12205;50.600;4.608;2023-03-23T17:22:45;99000.25;;;15.24
23992;BMP280;12205;50.600;4.608;2023-03-23T17:25:14;98990.13;;;15.28
23992;BMP280;12205;50.600;4.608;2023-03-23T17:27:41;98981.72;;;15.26
23992;BMP280;12205;50.600;4.608;2023-03-23T17:30:10;98975.31;;;15.20
23992;BMP280;12205;50.600;4.608;2023-03-23T17:32:37;98973.66;;;15.26
23992;BMP280;12205;50.600;4.608;2023-03-23T17:35:05;98967.00;;;15.31
23992;BMP280;12205;50.600;4.608;2023-03-23T17:37:33;98975.78;;;15.35
23992;BMP280;12205;50.600;4.608;2023-03-23T17:40:01;98961.56;;;15.34
23992;BMP280;12205;50.600;4.608;2023-03-23T17:42:30;98963.59;;;15.30
23992;BMP280;12205;50.600;4.608;2023-03-23T17:44:57;98965.41;;;15.33
23992;BMP280;12205;50.600;4.608;2023-03-23T17:47:24;98952.47;;;15.28
23992;BMP280;12205;50.600;4.608;2023-03-23T17:49:51;98958.66;;;15.25
23992;BMP280;12205;50.600;4.608;2023-03-23T17:52:18;98961.38;;;15.25